Time;durP1;ratioP1;P1;durP2;ratioP2;P2;SDS_P1;SDS_P2;PMS_P1;PMS_P2;Temp;Humidity;BMP_temperature;BMP_pressure;BME280_temperature;BME280_humidity;BME280_pressure;Samples;Min_cycle;Max_cycle;Signal;HPM_P1;HPM_P2
2022/01/01 00:00:34;;;;;;;190.40;157.50;;;7.70;99.90;;;8.44;100.00;98921.72;5161893;28;20206;-64
2022/01/01 00:03:08;;;;;;;173.07;146.15;;;7.70;99.90;;;8.44;100.00;98921.72;5162117;28;20676;-64
2022/01/01 00:05:42;;;;;;;151.95;129.30;;;7.60;99.90;;;8.45;100.00;98928.59;5159438;28;20301;-63
2022/01/01 00:08:16;;;;;;;113.97;101.38;;;7.60;99.90;;;8.43;100.00;98929.22;5161775;28;20698;-64
2022/01/01 00:10:49;;;;;;;92.35;82.57;;;7.60;99.90;;;8.43;100.00;98922.47;5160871;28;20250;-64
2022/01/01 00:13:22;;;;;;;94.23;81.80;;;7.60;99.90;;;8.41;100.00;98920.56;5159741;28;20207;-64
2022/01/01 00:15:55;;;;;;;87.67;78.23;;;7.60;99.90;;;8.39;100.00;98923.00;5159155;28;20249;-64
2022/01/01 00:18:30;;;;;;;81.50;72.73;;;7.70;99.90;;;8.42;100.00;98917.28;5163243;28;20658;-64
2022/01/01 00:21:03;;;;;;;78.93;70.50;;;7.70;99.90;;;8.35;100.00;98921.84;5160971;28;20212;-64
2022/01/01 00:23:36;;;;;;;75.70;67.40;;;7.60;99.90;;;8.39;100.00;98932.31;5161601;28;20222;-64
2022/01/01 00:26:09;;;;;;;83.47;72.70;;;7.70;99.90;;;8.45;100.00;98933.69;5162733;28;20227;-64
2022/01/01 00:28:43;;;;;;;94.53;82.80;;;7.70;99.90;;;8.50;100.00;98934.09;5162506;28;20226;-64
2022/01/01 00:31:16;;;;;;;94.70;84.55;;;7.80;99.90;;;8.52;100.00;98935.97;5162761;28;20199;-64
2022/01/01 00:33:50;;;;;;;92.60;82.65;;;7.80;99.90;;;8.53;100.00;98937.78;5159943;28;20203;-64
2022/01/01 00:36:23;;;;;;;97.97;85.82;;;7.80;99.90;;;8.56;100.00;98934.59;5160977;28;20689;-64
2022/01/01 00:38:56;;;;;;;93.32;81.97;;;7.80;99.90;;;8.59;100.00;98933.94;5160612;28;20226;-64
2022/01/01 00:41:29;;;;;;;85.00;75.75;;;7.80;99.90;;;8.60;100.00;98938.25;5162018;28;20204;-64
2022/01/01 00:44:04;;;;;;;72.45;64.47;;;7.80;99.90;;;8.61;100.00;98937.50;5157048;28;22348;-64
2022/01/01 00:46:37;;;;;;;59.85;53.65;;;7.80;99.90;;;8.60;100.00;98939.16;5161387;28;20237;-64
2022/01/01 00:49:12;;;;;;;57.72;51.72;;;7.80;99.90;;;8.61;100.00;98945.13;5159210;28;20210;-64
2022/01/01 00:51:45;;;;;;;58.08;51.78;;;7.90;99.90;;;8.62;100.00;98947.81;5159165;28;20207;-64
2022/01/01 00:54:18;;;;;;;69.43;62.10;;;7.90;99.90;;;8.64;100.00;98950.47;5158699;28;20231;-64
2022/01/01 00:56:51;;;;;;;69.95;62.05;;;7.90;99.90;;;8.67;100.00;98960.91;5162822;28;20227;-64
2022/01/01 00:59:24;;;;;;;89.47;79.77;;;7.90;99.90;;;8.68;100.00;98952.53;5161446;28;20205;-64
2022/01/01 01:01:58;;;;;;;71.28;61.83;;;7.90;99.90;;;8.69;100.00;98954.31;5161130;28;21231;-64
2022/01/01 01:04:32;;;;;;;54.00;48.10;;;7.90;99.90;;;8.69;100.00;98950.09;5160612;28;20293;-64
2022/01/01 01:07:05;;;;;;;43.35;38.88;;;7.90;99.90;;;8.69;100.00;98944.09;5159764;28;20694;-64
2022/01/01 01:09:39;;;;;;;41.65;37.30;;;7.90;99.90;;;8.71;100.00;98943.47;5159685;28;20200;-64
2022/01/01 01:12:12;;;;;;;39.50;35.38;;;8.00;99.90;;;8.74;100.00;98937.75;5159647;28;20214;-64
2022/01/01 01:14:46;;;;;;;35.13;31.52;;;8.00;99.90;;;8.77;100.00;98937.97;5162907;28;20196;-64
2022/01/01 01:17:19;;;;;;;36.90;33.08;;;8.00;99.90;;;8.79;100.00;98936.47;5163631;28;20215;-64
2022/01/01 01:19:54;;;;;;;38.65;34.65;;;8.10;99.90;;;8.81;100.00;98945.09;5163291;28;20203;-64
2022/01/01 01:22:29;;;;;;;32.03;28.73;;;8.10;99.90;;;8.84;100.00;98944.47;5160840;28;20206;-64
2022/01/01 01:25:02;;;;;;;32.35;29.00;;;8.10;99.90;;;8.89;100.00;98944.06;5160866;28;20209;-64
2022/01/01 01:27:36;;;;;;;38.85;34.10;;;8.10;99.90;;;8.84;100.00;98950.44;5159462;28;20233;-64
2022/01/01 01:30:13;;;;;;;32.53;29.27;;;8.10;99.90;;;8.84;100.00;98940.25;5159354;28;20596;-64
2022/01/01 01:32:46;;;;;;;37.42;33.42;;;8.10;99.90;;;8.90;100.00;98950.97;5158697;28;20718;-64
2022/01/01 01:35:21;;;;;;;36.53;32.67;;;8.10;99.90;;;8.86;100.00;98950.59;5160127;28;20203;-64
2022/01/01 01:37:54;;;;;;;39.15;34.90;;;8.10;99.90;;;8.84;100.00;98955.53;5157617;28;20219;-64
2022/01/01 01:40:28;;;;;;;30.38;27.08;;;8.10;99.90;;;8.77;100.00;98966.03;5163771;28;20203;-64
2022/01/01 01:43:08;;;;;;;27.88;24.98;;;8.10;99.90;;;8.75;100.00;98965.00;5159633;28;20558;-64
2022/01/01 01:45:43;;;;;;;25.50;23.00;;;8.10;99.90;;;8.76;100.00;98964.25;5156791;28;20610;-64
2022/01/01 01:48:17;;;;;;;23.73;21.27;;;8.10;99.90;;;8.74;100.00;98978.50;5162120;28;20247;-63
2022/01/01 01:50:51;;;;;;;21.90;19.55;;;8.10;99.90;;;8.73;100.00;98979.28;5158736;28;20215;-62
2022/01/01 01:53:24;;;;;;;21.55;19.02;;;8.10;99.90;;;8.71;100.00;98973.16;5162057;28;20222;-63
2022/01/01 01:55:59;;;;;;;23.85;19.08;;;8.10;99.90;;;8.72;100.00;98968.19;5156986;28;20230;-63
2022/01/01 01:58:34;;;;;;;20.75;18.00;;;8.10;99.90;;;8.74;100.00;98974.31;5159596;28;20195;-63
2022/01/01 02:04:04;;;;;;;20.77;17.95;;;8.20;99.90;;;8.75;100.00;98968.44;5161999;28;20656;-63
2022/01/01 02:06:40;;;;;;;18.85;16.88;;;8.20;99.90;;;8.82;100.00;98974.94;5158427;28;20230;-62
2022/01/01 02:09:14;;;;;;;18.77;16.83;;;8.20;99.90;;;8.84;100.00;98963.19;5161154;28;20705;-62
2022/01/01 02:11:47;;;;;;;19.75;17.67;;;8.30;99.90;;;8.90;100.00;98973.91;5160543;28;20206;-63
2022/01/01 02:14:32;;;;;;;19.20;17.20;;;8.30;99.90;;;8.93;100.00;98963.06;5158645;28;20218;-62
2022/01/01 02:17:10;;;;;;;20.00;17.48;;;8.30;99.90;;;8.93;100.00;98981.81;5159786;28;20223;-62
2022/01/01 02:19:54;;;;;;;19.13;16.92;;;8.30;99.90;;;8.95;100.00;98970.06;5160275;28;20203;-63
2022/01/01 02:22:40;;;;;;;23.40;18.83;;;8.40;99.90;;;8.97;100.00;98973.63;5158033;28;20187;-62
2022/01/01 02:25:13;;;;;;;22.45;19.77;;;8.40;99.90;;;8.95;100.00;98971.72;5157702;28;20206;-63
2022/01/01 02:27:47;;;;;;;21.38;18.98;;;8.40;99.90;;;8.97;100.00;98973.63;5159916;28;20241;-63
2022/01/01 02:30:20;;;;;;;21.35;19.15;;;8.40;99.90;;;8.96;100.00;98976.06;5156445;28;20208;-63
2022/01/01 02:32:53;;;;;;;25.38;22.75;;;8.30;99.90;;;8.94;100.00;98970.84;5159100;28;20953;-62
2022/01/01 02:35:26;;;;;;;22.95;20.65;;;8.30;99.90;;;8.93;100.00;98976.72;5157669;28;20912;-64
2022/01/01 02:38:01;;;;;;;22.90;20.50;;;8.30;99.90;;;8.93;100.00;98976.72;5155210;28;20582;-62
2022/01/01 02:40:34;;;;;;;20.98;18.88;;;8.30;99.90;;;8.95;100.00;98975.16;5152421;28;20211;-62
2022/01/01 02:43:08;;;;;;;19.63;17.60;;;8.30;99.90;;;8.93;100.00;98981.81;5155660;28;20204;-64
2022/01/01 02:45:41;;;;;;;20.00;18.10;;;8.30;99.90;;;8.91;100.00;98990.97;5159447;28;20249;-63
2022/01/01 02:48:14;;;;;;;20.48;18.45;;;8.30;99.90;;;8.90;100.00;98986.66;5159637;28;20334;-64
2022/01/01 02:50:47;;;;;;;19.73;17.83;;;8.30;99.90;;;8.90;100.00;98986.66;5157146;28;20196;-63
2022/01/01 02:53:22;;;;;;;19.15;17.27;;;8.30;99.90;;;8.91;100.00;98990.97;5159460;28;21603;-64
2022/01/01 02:55:54;;;;;;;21.10;17.88;;;8.30;99.90;;;8.92;100.00;98979.13;5157534;28;20238;-64
2022/01/01 02:58:27;;;;;;;19.63;17.35;;;8.30;99.90;;;8.98;100.00;98980.50;5158561;28;20195;-64
2022/01/01 03:01:00;;;;;;;21.02;18.15;;;8.30;99.90;;;8.94;100.00;98983.59;5158629;28;20199;-65
2022/01/01 03:03:34;;;;;;;17.38;15.52;;;8.40;99.90;;;8.94;100.00;98982.69;5158941;28;20246;-65
2022/01/01 03:06:07;;;;;;;18.60;15.90;;;8.40;99.90;;;8.95;100.00;98980.25;5157966;28;20227;-65
2022/01/01 03:08:41;;;;;;;18.60;15.98;;;8.40;99.90;;;8.97;100.00;98981.28;5158893;28;20219;-63
2022/01/01 03:11:15;;;;;;;19.98;16.30;;;8.40;99.90;;;8.99;100.00;98978.88;5160227;28;20198;-64
2022/01/01 03:13:48;;;;;;;19.85;17.63;;;8.40;99.90;;;8.99;100.00;98976.31;5158284;28;20211;-65
2022/01/01 03:16:22;;;;;;;19.88;17.83;;;8.40;99.90;;;8.99;100.00;98973.78;5158266;28;20218;-63
2022/01/01 03:18:55;;;;;;;17.67;15.50;;;8.40;99.90;;;8.99;100.00;98968.66;5159362;28;20199;-64
2022/01/01 03:21:28;;;;;;;18.00;16.13;;;8.40;99.90;;;9.00;100.00;98967.88;5157320;28;20568;-63
2022/01/01 03:24:02;;;;;;;22.90;19.42;;;8.40;99.90;;;8.97;100.00;98962.53;5157093;28;20211;-64
2022/01/01 03:26:35;;;;;;;24.73;20.98;;;8.40;99.90;;;8.96;100.00;98971.84;5158929;28;20229;-65
2022/01/01 03:29:08;;;;;;;25.10;20.30;;;8.40;99.90;;;8.96;100.00;98964.22;5158919;28;20227;-65
2022/01/01 03:31:41;;;;;;;21.30;18.92;;;8.40;99.90;;;8.97;100.00;98968.53;5157957;28;20192;-64
2022/01/01 03:34:15;;;;;;;22.27;19.95;;;8.40;99.90;;;8.98;100.00;98974.50;5159883;28;20206;-65
2022/01/01 03:36:48;;;;;;;24.77;20.13;;;8.40;99.90;;;8.98;100.00;98975.41;5155267;28;20223;-63
2022/01/01 03:39:23;;;;;;;24.88;19.58;;;8.40;99.90;;;8.98;100.00;98965.19;5158023;28;20199;-64
2022/01/01 03:41:56;;;;;;;22.23;18.13;;;8.40;99.90;;;8.99;100.00;98964.47;5158174;28;20285;-64
2022/01/01 03:44:29;;;;;;;22.08;18.33;;;8.40;99.90;;;9.03;100.00;98975.78;5154389;28;20204;-64
2022/01/01 03:47:09;;;;;;;19.83;17.58;;;8.40;99.90;;;9.02;100.00;98972.34;5156490;28;20215;-64
2022/01/01 03:49:42;;;;;;;19.75;17.65;;;8.40;99.90;;;9.02;100.00;98972.34;5157896;28;20219;-64
2022/01/01 03:52:15;;;;;;;19.75;17.75;;;8.40;99.90;;;9.00;100.00;98966.22;5153357;28;20682;-64
2022/01/01 03:54:50;;;;;;;20.40;18.40;;;8.40;99.90;;;8.98;100.00;98970.31;5157457;28;20204;-64
2022/01/01 03:57:23;;;;;;;17.90;16.20;;;8.40;99.90;;;8.95;100.00;98979.38;5160114;28;20237;-63
2022/01/01 03:59:56;;;;;;;18.33;16.25;;;8.30;99.90;;;8.89;100.00;98967.00;5160018;28;20199;-63
2022/01/01 04:02:29;;;;;;;17.33;15.63;;;8.30;99.90;;;8.88;100.00;98972.88;5158301;28;20195;-63
2022/01/01 04:05:03;;;;;;;17.77;15.88;;;8.30;99.90;;;8.92;100.00;98969.81;5159284;28;20199;-64
2022/01/01 04:07:37;;;;;;;15.90;14.30;;;8.30;99.90;;;8.92;100.00;98980.00;5157454;28;20223;-63
2022/01/01 04:10:12;;;;;;;15.95;14.38;;;8.30;99.90;;;8.94;100.00;98968.28;5159466;28;20219;-64
2022/01/01 04:12:45;;;;;;;17.30;15.05;;;8.30;99.90;;;8.95;100.00;98981.91;5155051;28;20210;-63
2022/01/01 04:15:18;;;;;;;18.90;15.82;;;8.30;99.90;;;8.97;100.00;98973.63;5158229;28;20210;-64
2022/01/01 04:17:56;;;;;;;21.45;17.38;;;8.30;99.90;;;9.01;100.00;98978.22;5156998;28;20219;-62
2022/01/01 04:20:29;;;;;;;22.10;17.58;;;8.40;99.90;;;8.97;100.00;98968.53;5159278;28;20196;-65
2022/01/01 04:23:08;;;;;;;21.00;17.85;;;8.30;99.90;;;8.98;100.00;98975.41;5154254;28;20217;-64
2022/01/01 04:25:43;;;;;;;20.55;16.55;;;8.40;99.90;;;9.00;100.00;98971.31;5154145;28;20199;-62
2022/01/01 04:28:16;;;;;;;21.48;16.90;;;8.40;99.90;;;9.03;100.00;98974.13;5156488;28;20210;-65
2022/01/01 04:30:49;;;;;;;19.70;17.63;;;8.40;99.90;;;9.05;100.00;98981.03;5157078;28;20221;-63
2022/01/01 04:33:22;;;;;;;26.60;22.17;;;8.40;99.90;;;9.06;100.00;98973.47;5161781;28;20206;-63
2022/01/01 04:35:56;;;;;;;26.08;20.33;;;8.50;99.90;;;9.01;100.00;98965.47;5162086;28;20223;-63
2022/01/01 04:38:37;;;;;;;23.75;19.67;;;8.50;99.90;;;9.01;100.00;98970.59;5159589;28;20690;-62
2022/01/01 04:41:14;;;;;;;22.17;18.42;;;8.40;99.90;;;9.00;100.00;98968.78;5162070;28;20195;-64
2022/01/01 04:43:51;;;;;;;24.05;19.25;;;8.40;99.90;;;9.00;100.00;98960.25;5157273;28;20199;-63
2022/01/01 04:46:24;;;;;;;22.38;19.35;;;8.40;99.90;;;9.01;100.00;98959.47;5159242;28;21480;-64
2022/01/01 04:48:57;;;;;;;25.27;19.52;;;8.40;99.90;;;9.05;100.00;98958.97;5162773;28;20281;-63
2022/01/01 04:51:30;;;;;;;23.02;18.70;;;8.40;99.90;;;9.06;100.00;98953.09;5160262;28;20226;-64
2022/01/01 04:54:07;;;;;;;26.08;21.38;;;8.40;99.90;;;9.07;100.00;98957.44;5158969;28;20195;-64
2022/01/01 04:56:43;;;;;;;32.78;25.10;;;8.50;99.90;;;9.14;100.00;98958.81;5160552;28;20711;-63
2022/01/01 04:59:17;;;;;;;31.27;23.65;;;8.50;99.90;;;9.13;100.00;98945.16;5158308;28;20217;-64
2022/01/01 05:01:50;;;;;;;28.33;22.92;;;8.50;99.90;;;9.13;100.00;98944.25;5160313;28;20583;-63
2022/01/01 05:04:24;;;;;;;32.28;24.80;;;8.50;99.90;;;9.13;100.00;98944.25;5157117;28;20799;-63
2022/01/01 05:06:57;;;;;;;30.25;25.10;;;8.50;99.90;;;9.14;100.00;98951.16;5160405;28;20225;-64
2022/01/01 05:09:30;;;;;;;30.17;24.42;;;8.60;99.90;;;9.17;100.00;98948.84;5159667;28;20216;-64
2022/01/01 05:12:06;;;;;;;32.45;26.10;;;8.60;99.90;;;9.19;100.00;98947.31;5161913;28;20203;-64
2022/01/01 05:14:39;;;;;;;28.77;24.55;;;8.60;99.90;;;9.20;100.00;98946.53;5159040;28;20199;-64
2022/01/01 05:17:14;;;;;;;30.75;25.02;;;8.60;99.90;;;9.20;100.00;98951.63;5156999;28;20231;-63
2022/01/01 05:19:47;;;;;;;30.50;24.80;;;8.60;99.90;;;9.20;100.00;98946.53;5158057;28;20221;-64
2022/01/01 05:22:20;;;;;;;30.98;25.40;;;8.50;99.90;;;9.21;100.00;98950.84;5156762;28;20217;-65
2022/01/01 05:24:56;;;;;;;30.75;25.88;;;8.50;99.90;;;9.17;100.00;98946.31;5161442;28;20192;-65
2022/01/01 05:27:32;;;;;;;35.95;28.83;;;8.50;99.90;;;9.13;100.00;98942.63;5159638;28;20226;-64
2022/01/01 05:30:07;;;;;;;31.20;24.70;;;8.50;99.90;;;9.11;100.00;98940.72;5158832;28;20679;-65
2022/01/01 05:32:41;;;;;;;32.70;25.67;;;8.40;99.90;;;9.01;100.00;98945.09;5158421;28;20577;-64
2022/01/01 05:35:14;;;;;;;31.65;26.92;;;8.30;99.90;;;8.97;100.00;98932.84;5158181;28;20237;-66
2022/01/01 05:37:47;;;;;;;33.08;26.38;;;8.20;99.90;;;8.87;100.00;98940.53;5159697;28;20269;-63
2022/01/01 05:40:21;;;;;;;33.60;27.55;;;8.20;99.90;;;8.80;100.00;98938.22;5158456;28;20243;-64
2022/01/01 05:42:55;;;;;;;34.30;27.23;;;8.10;99.90;;;8.77;100.00;98945.63;5157954;28;20209;-65
2022/01/01 05:45:28;;;;;;;35.03;27.50;;;8.10;99.90;;;8.67;100.00;98950.72;5159885;28;20210;-65
2022/01/01 05:48:02;;;;;;;34.05;26.13;;;8.00;99.90;;;8.70;100.00;98956.06;5159776;28;20207;-64
2022/01/01 05:50:35;;;;;;;29.50;24.33;;;8.00;99.90;;;8.69;100.00;98955.19;5158155;28;20234;-65
2022/01/01 05:53:08;;;;;;;31.87;24.53;;;8.00;99.90;;;8.69;100.00;98957.75;5162450;28;20196;-63
2022/01/01 05:55:41;;;;;;;30.73;25.30;;;8.00;99.90;;;8.73;100.00;98956.34;5160413;28;20210;-64
2022/01/01 05:58:16;;;;;;;30.45;25.02;;;8.10;99.90;;;8.72;100.00;98959.66;5163351;28;20196;-65
2022/01/01 06:00:49;;;;;;;33.38;27.05;;;8.00;99.90;;;8.74;100.00;98958.13;5156393;28;20226;-65
2022/01/01 06:03:22;;;;;;;33.25;28.02;;;8.00;99.90;;;8.71;100.00;98957.88;5159231;28;20202;-64
2022/01/01 06:05:55;;;;;;;29.63;24.52;;;8.00;99.90;;;8.71;100.00;98961.31;5156732;28;20226;-65
2022/01/01 06:08:29;;;;;;;29.95;24.92;;;8.00;99.90;;;8.66;100.00;98964.25;5161605;28;20211;-65
2022/01/01 06:11:02;;;;;;;29.88;23.67;;;8.00;99.90;;;8.66;100.00;98974.44;5158620;28;20227;-65
2022/01/01 06:13:36;;;;;;;27.80;24.42;;;8.00;99.90;;;8.66;100.00;98972.78;5159546;28;20209;-65
2022/01/01 06:16:09;;;;;;;30.90;24.65;;;8.00;99.90;;;8.64;100.00;98973.41;5158159;28;20222;-63
2022/01/01 06:18:42;;;;;;;30.10;24.73;;;7.90;99.90;;;8.62;100.00;98978.41;5156538;28;20195;-65
2022/01/01 06:21:15;;;;;;;29.02;23.23;;;7.90;99.90;;;8.56;100.00;98981.34;5161676;28;20729;-65
2022/01/01 06:23:48;;;;;;;31.10;26.25;;;7.90;99.90;;;8.53;100.00;98983.63;5157139;28;20204;-63
2022/01/01 06:26:22;;;;;;;30.75;25.20;;;7.90;99.90;;;8.53;100.00;98988.72;5156651;28;21957;-63
2022/01/01 06:28:56;;;;;;;34.17;28.08;;;7.90;99.90;;;8.54;100.00;98990.50;5160002;28;20207;-65
2022/01/01 06:31:29;;;;;;;31.42;24.65;;;7.90;99.90;;;8.59;100.00;99002.75;5158657;28;20224;-65
2022/01/01 06:34:02;;;;;;;30.35;25.90;;;7.90;99.90;;;8.55;100.00;98992.28;5160148;28;20211;-65
2022/01/01 06:36:36;;;;;;;29.23;24.52;;;7.90;99.90;;;8.56;100.00;98994.06;5157471;28;20226;-65
2022/01/01 06:39:09;;;;;;;28.40;23.80;;;7.90;99.90;;;8.59;100.00;98996.00;5159312;28;20205;-65
2022/01/01 06:41:42;;;;;;;29.38;24.42;;;7.90;99.90;;;8.61;100.00;99012.28;5157018;28;20211;-65
2022/01/01 06:44:16;;;;;;;30.90;26.08;;;7.90;99.90;;;8.60;100.00;98999.44;5158238;28;20337;-65
2022/01/01 06:46:49;;;;;;;27.40;23.25;;;7.90;99.90;;;8.58;100.00;99006.94;5154437;28;20219;-65
2022/01/01 06:49:23;;;;;;;29.00;24.00;;;7.90;99.90;;;8.57;100.00;99016.22;5160732;28;20293;-65
2022/01/01 06:51:56;;;;;;;27.23;22.90;;;7.80;99.90;;;8.56;100.00;99019.56;5158560;28;20215;-65
2022/01/01 06:54:29;;;;;;;28.52;22.92;;;7.90;99.90;;;8.57;100.00;99021.31;5158440;28;20195;-65
2022/01/01 06:57:02;;;;;;;26.73;22.98;;;7.90;99.90;;;8.60;100.00;99030.00;5156073;28;20693;-64
2022/01/01 06:59:37;;;;;;;29.42;23.73;;;7.90;99.90;;;8.59;100.00;99025.69;5159422;28;20634;-63
2022/01/01 07:02:10;;;;;;;31.23;24.08;;;7.90;99.90;;;8.61;100.00;99026.69;5158502;28;20205;-64
2022/01/01 07:04:43;;;;;;;31.45;24.73;;;7.90;99.90;;;8.64;100.00;99032.03;5160598;28;20207;-65
2022/01/01 07:07:16;;;;;;;30.42;24.30;;;8.00;99.90;;;8.69;100.00;99030.75;5158580;28;20234;-63
2022/01/01 07:09:49;;;;;;;29.92;23.92;;;8.00;99.90;;;8.70;100.00;99027.44;5158481;28;20195;-65
2022/01/01 07:12:22;;;;;;;35.55;26.38;;;8.00;99.90;;;8.71;100.00;99027.59;5159087;28;20257;-64
2022/01/01 07:14:57;;;;;;;30.95;23.27;;;8.00;99.90;;;8.72;100.00;99029.34;5155902;28;20632;-65
2022/01/01 07:17:30;;;;;;;30.63;24.65;;;8.00;99.90;;;8.73;100.00;99031.16;5156860;28;20229;-63
2022/01/01 07:20:03;;;;;;;30.73;25.52;;;8.00;99.90;;;8.63;100.00;99031.16;5156739;28;20196;-65
2022/01/01 07:22:41;;;;;;;30.42;23.55;;;7.90;99.90;;;8.67;100.00;99028.09;5157916;28;20209;-65
2022/01/01 07:25:15;;;;;;;27.70;22.67;;;7.90;99.90;;;8.68;100.00;99024.78;5162249;28;20213;-65
2022/01/01 07:27:48;;;;;;;29.67;23.85;;;7.90;99.90;;;8.70;100.00;99022.34;5156651;28;20313;-65
2022/01/01 07:30:23;;;;;;;31.23;24.30;;;8.00;99.90;;;8.68;100.00;99008.59;5156886;28;20200;-65
2022/01/01 07:32:56;;;;;;;31.58;24.75;;;7.90;99.90;;;8.63;100.00;99014.97;5155115;28;20233;-62
2022/01/01 07:35:29;;;;;;;29.08;23.27;;;7.90;99.90;;;8.62;100.00;99010.66;5157644;28;20207;-65
2022/01/01 07:38:02;;;;;;;28.60;24.02;;;7.90;99.90;;;8.59;100.00;99010.41;5156772;28;20669;-64
2022/01/01 07:40:36;;;;;;;24.80;22.13;;;7.80;99.90;;;8.53;100.00;99008.22;5155119;28;20214;-66
2022/01/01 07:43:12;;;;;;;28.23;24.27;;;7.70;99.90;;;8.50;100.00;99003.75;5155678;28;20199;-65
2022/01/01 07:45:47;;;;;;;28.90;24.42;;;7.80;99.90;;;8.51;100.00;99000.44;5152033;28;20593;-65
2022/01/01 07:48:20;;;;;;;30.27;24.17;;;7.80;99.90;;;8.52;100.00;99007.31;5158589;28;20206;-65
2022/01/01 07:50:53;;;;;;;27.57;22.83;;;7.80;99.90;;;8.53;100.00;99008.22;5153566;28;20242;-66
2022/01/01 07:53:26;;;;;;;28.45;23.10;;;7.80;99.90;;;8.54;100.00;99015.97;5154507;28;20213;-65
2022/01/01 07:55:59;;;;;;;28.75;23.48;;;7.80;99.90;;;8.56;100.00;99014.47;5150174;28;20240;-66
2022/01/01 07:58:32;;;;;;;27.40;23.33;;;7.80;99.90;;;8.63;100.00;99007.31;5153192;28;20207;-65
2022/01/01 08:01:07;;;;;;;30.70;25.15;;;7.90;99.90;;;8.72;100.00;99003.88;5152526;28;20679;-65
2022/01/01 08:03:40;;;;;;;26.38;21.80;;;8.00;99.90;;;8.75;100.00;99001.56;5156027;28;20195;-66
2022/01/01 08:06:13;;;;;;;24.27;21.08;;;8.00;99.90;;;8.74;100.00;98996.34;5161187;28;20230;-66
2022/01/01 08:08:46;;;;;;;24.70;19.98;;;8.00;99.90;;;8.82;100.00;98997.88;5159862;28;20203;-65
2022/01/01 08:11:19;;;;;;;25.60;20.58;;;8.10;99.90;;;9.01;100.00;98987.50;5158250;28;20222;-66
2022/01/01 08:13:57;;;;;;;25.42;21.42;;;8.30;99.90;;;9.17;100.00;99002.41;5159597;28;20212;-66
2022/01/01 08:16:32;;;;;;;23.65;20.27;;;8.50;99.90;;;9.26;100.00;99000.59;5163896;28;20288;-65
2022/01/01 08:19:05;;;;;;;24.60;19.85;;;8.60;99.90;;;9.33;100.00;98994.31;5160295;28;20548;-66
2022/01/01 08:21:38;;;;;;;23.90;19.75;;;8.60;99.90;;;9.49;100.00;98997.31;5157359;28;20199;-62
2022/01/01 08:24:11;;;;;;;21.75;19.42;;;8.80;99.90;;;9.57;100.00;98997.94;5165116;28;20591;-65
2022/01/01 08:26:44;;;;;;;21.85;19.15;;;8.80;99.90;;;9.60;100.00;98987.97;5173797;28;20318;-64
2022/01/01 08:29:18;;;;;;;21.80;19.45;;;8.80;99.90;;;9.66;100.00;98997.00;5169780;28;20214;-66
2022/01/01 08:31:54;;;;;;;22.15;19.80;;;8.90;99.90;;;9.74;100.00;98997.63;5165159;28;20216;-65
2022/01/01 08:34:28;;;;;;;23.15;19.40;;;9.00;99.90;;;9.84;100.00;99002.69;5162837;28;20574;-65
2022/01/01 08:37:01;;;;;;;22.30;19.80;;;9.10;99.90;;;9.97;100.00;98998.53;5161679;28;20314;-65
2022/01/01 08:39:34;;;;;;;23.77;20.25;;;9.20;99.90;;;10.08;100.00;98992.59;5165262;28;20209;-66
2022/01/01 08:42:09;;;;;;;25.90;22.48;;;9.30;99.90;;;10.20;100.00;98998.63;5169377;28;20207;-64
2022/01/01 08:44:44;;;;;;;23.02;19.05;;;9.50;99.90;;;10.32;100.00;98983.38;5163649;28;20199;-66
2022/01/01 08:47:18;;;;;;;20.02;17.48;;;9.60;99.90;;;10.40;100.00;98984.84;5162572;28;20229;-66
2022/01/01 08:49:54;;;;;;;20.90;18.80;;;9.70;99.90;;;10.46;100.00;98986.97;5166731;28;20209;-64
2022/01/01 08:52:28;;;;;;;20.75;18.55;;;9.80;99.90;;;10.35;100.00;98987.03;5164930;28;20350;-66
2022/01/01 08:55:01;;;;;;;20.95;18.85;;;9.70;99.90;;;10.42;100.00;98992.66;5162088;28;20298;-66
2022/01/01 08:57:35;;;;;;;23.00;20.50;;;9.70;99.90;;;10.42;100.00;98985.88;5164187;28;20255;-63
2022/01/01 09:00:12;;;;;;;25.45;22.85;;;9.80;99.90;;;10.48;100.00;98995.66;5158783;28;20202;-66
2022/01/01 09:02:46;;;;;;;33.17;29.70;;;9.80;99.90;;;10.52;100.00;99003.66;5159572;28;20214;-65
2022/01/01 09:05:21;;;;;;;28.42;25.55;;;9.90;99.90;;;10.62;100.00;99004.38;5162357;28;20322;-66
2022/01/01 09:07:55;;;;;;;23.60;21.30;;;9.90;99.90;;;10.69;100.00;99010.03;5162030;28;20226;-66
2022/01/01 09:10:28;;;;;;;22.55;20.20;;;10.10;99.90;;;10.62;99.24;99007.81;5160991;28;20200;-65
2022/01/01 09:13:01;;;;;;;23.77;21.15;;;10.00;99.90;;;10.74;99.54;99012.97;5157738;28;20715;-64
2022/01/01 09:15:34;;;;;;;23.88;21.45;;;10.10;99.90;;;10.82;98.12;99012.75;5157968;28;20205;-65
2022/01/01 09:18:08;;;;;;;23.48;21.00;;;10.20;99.90;;;10.81;97.56;99023.75;5160327;28;20264;-66
2022/01/01 09:20:41;;;;;;;23.33;20.83;;;10.20;99.90;;;10.80;98.74;99032.19;5163090;28;20199;-66
2022/01/01 09:23:14;;;;;;;22.45;20.13;;;10.20;99.90;;;10.88;98.81;99040.47;5157956;28;20652;-66
2022/01/01 09:25:47;;;;;;;23.48;21.02;;;10.20;99.90;;;10.94;98.05;99040.91;5158107;28;20223;-65
2022/01/01 09:28:20;;;;;;;21.38;19.17;;;10.40;99.90;;;11.12;95.03;99046.50;5163232;28;20199;-65
2022/01/01 09:30:53;;;;;;;22.52;19.33;;;10.50;99.90;;;11.19;94.27;99042.75;5161551;28;20195;-64
2022/01/01 09:33:29;;;;;;;21.10;18.88;;;10.60;99.90;;;11.07;93.65;99047.81;5161350;28;20231;-65
2022/01/01 09:36:05;;;;;;;20.45;18.38;;;10.50;99.90;;;11.12;94.70;99046.50;5163498;28;20231;-65
2022/01/01 09:38:38;;;;;;;19.55;17.63;;;10.50;99.90;;;11.09;94.36;99048.84;5163814;28;20572;-65
2022/01/01 09:41:13;;;;;;;18.65;16.02;;;10.50;99.90;;;11.17;93.10;99040.06;5157210;28;20209;-65
2022/01/01 09:43:47;;;;;;;20.42;17.20;;;10.60;99.90;;;11.13;92.42;99043.19;5159926;28;20738;-66
2022/01/01 09:46:20;;;;;;;19.30;17.27;;;10.50;99.90;;;10.98;91.50;99036.91;5161227;28;20713;-63
2022/01/01 09:49:01;;;;;;;22.83;20.42;;;10.50;99.90;;;10.90;91.66;99038.00;5161624;28;20670;-65
2022/01/01 09:51:35;;;;;;;20.83;18.65;;;10.40;99.90;;;11.00;92.92;99043.94;5161408;28;20220;-66
2022/01/01 09:54:09;;;;;;;23.38;19.35;;;10.50;99.90;;;11.16;93.40;99042.50;5157344;28;20207;-65
2022/01/01 09:56:42;;;;;;;26.40;22.25;;;10.60;99.90;;;11.23;92.69;99039.63;5158982;28;20805;-66
2022/01/01 09:59:15;;;;;;;21.42;19.13;;;10.70;99.90;;;11.34;93.44;99048.09;5160405;28;20234;-65
2022/01/01 10:01:48;;;;;;;19.52;17.42;;;10.80;99.90;;;11.38;92.95;99045.84;5157040;28;20301;-64
2022/01/01 10:04:23;;;;;;;19.52;17.45;;;10.90;99.90;;;11.40;91.55;99036.63;5161449;28;20210;-65
2022/01/01 10:07:04;;;;;;;21.95;19.08;;;10.90;99.90;;;11.29;89.29;99047.75;5164068;28;20219;-65
2022/01/01 10:09:38;;;;;;;19.42;17.40;;;10.80;99.90;;;11.39;90.83;99041.59;5164844;28;20199;-65
2022/01/01 10:12:16;;;;;;;18.42;16.30;;;10.90;99.90;;;11.40;88.84;99033.19;5162922;28;20241;-65
2022/01/01 10:14:50;;;;;;;18.17;16.20;;;10.80;99.90;;;11.48;88.20;99032.06;5165819;28;20675;-66
2022/01/01 10:17:25;;;;;;;16.17;14.50;;;10.90;99.90;;;11.45;86.32;99036.97;5165780;28;20219;-65
2022/01/01 10:19:59;;;;;;;16.15;14.45;;;10.80;99.90;;;11.51;85.43;99039.97;5165693;28;20205;-65
2022/01/01 10:22:32;;;;;;;16.95;15.10;;;10.80;99.90;;;11.43;86.25;99035.94;5163943;28;20205;-66
2022/01/01 10:28:01;;;;;;;16.05;13.73;;;10.80;99.90;;;11.49;87.26;99034.72;5150240;28;20286;-66
2022/01/01 10:30:38;;;;;;;15.27;13.82;;;10.90;99.90;;;11.68;85.97;99024.13;5165412;28;20647;-65
2022/01/01 10:33:14;;;;;;;14.40;12.93;;;11.00;99.90;;;11.66;84.38;99018.00;5166504;28;20218;-65
2022/01/01 10:35:51;;;;;;;14.85;13.30;;;11.10;99.90;;;11.80;83.19;99016.44;5166449;28;20213;-65
2022/01/01 10:38:27;;;;;;;13.40;12.10;;;11.10;99.90;;;11.73;85.60;99012.56;5166228;28;20203;-66
2022/01/01 10:41:08;;;;;;;13.20;11.82;;;11.10;99.90;;;11.71;85.27;99009.00;5166280;28;20659;-65
2022/01/01 10:43:43;;;;;;;13.63;12.32;;;11.10;99.90;;;11.71;85.27;99011.56;5166921;28;20203;-64